首页
METAR-TAF:

METAR-TAF

机场 :

Cranfield, 英格兰

纬度: 52-04N, 经度: 000-37W, 海拔: 111米

当前天气观测

该预报发布于21分钟前的15:50 UTC
风速10节,风向西
温度 13°C
湿度 94%
气压 997 hPa
能見度: 6000
少量云层高于1600英尺
多云层高于2700英尺
小阵雨

METAR: EGTC 231550Z 28010KT 6000 -SHRA FEW016 BKN027 13/12 Q0997 RESHRA

时间: 17:11 (16:11 UTC)

预报

该预报发布于2小时和12分钟前的13:59 UTC
预报有效从23日的 15点(UTC)到 23日的 18点(UTC)
风速10节,风向西转西南
能见度10公里或以上
散云层高于1800英尺
短暂存在
从 23日的 15点(UTC)到 23日的 18点(UTC)
能見度: 6000
多云层高于1200英尺
阵雨, 雨
几率 30% :
短暂存在
从 23日的 15点(UTC)到 23日的 18点(UTC)
能見度: 4000
多云层高于900英尺
大阵雨

TAF: EGTC 231359Z 2315/2318 24010KT 9999 SCT018 TEMPO 2315/2318 6000 SHRA RA BKN012 PROB30 TEMPO 2315/2318 4000 +SHRA BKN009

超过4000个机场的气象观测和天气预报(METAR&TAF报告)。

可查询的气象台以黄色和红色小点在地图上表示。

将鼠标移到小点上方,可查看气象台名称。

然后点击查看天气观测和预报。

如需切换地图:点击带黑十字的绿色按钮放大地图;点击带横线的绿色按钮缩小地图;或者点击绿色箭头查看邻近地区的地图。


METAR-TAF: